createdAt,value
2022-09-03T00:47:52.325Z,4.80
2022-09-03T00:51:04.687Z,3.72
2022-09-03T00:54:02.626Z,3.30
2022-09-03T00:56:55.608Z,4.47
2022-09-03T00:59:52.714Z,4.30
2022-09-03T01:46:26.555Z,3.05
2022-09-03T01:49:24.056Z,2.65
2022-09-03T01:52:13.786Z,2.47
2022-09-03T01:55:10.576Z,2.23
2022-09-03T01:58:11.887Z,3.03
2022-09-03T02:46:53.214Z,1.98
2022-09-03T02:49:38.564Z,1.75
2022-09-03T02:52:23.846Z,3.00
2022-09-03T02:55:09.238Z,2.42
2022-09-03T02:57:54.131Z,2.87
2022-09-03T04:32:52.711Z,2.53
2022-09-03T04:35:38.158Z,1.90
2022-09-03T04:38:24.256Z,4.03
2022-09-03T04:41:14.057Z,2.55
2022-09-03T04:44:00.051Z,1.20
2022-09-03T04:46:47.831Z,1.98
2022-09-03T04:49:33.747Z,2.07
2022-09-03T04:52:19.585Z,2.33
2022-09-03T04:55:05.555Z,2.55
2022-09-03T04:57:50.803Z,2.33
2022-09-03T05:00:37.435Z,2.45
2022-09-03T05:03:22.916Z,3.00
2022-09-03T05:06:09.561Z,2.38
2022-09-03T05:08:55.797Z,2.13
2022-09-03T05:11:40.794Z,2.08
2022-09-03T05:14:25.824Z,2.30
2022-09-03T05:17:11.170Z,1.40
2022-09-03T05:19:56.150Z,2.13
2022-09-03T05:22:41.002Z,1.63
2022-09-03T05:25:26.019Z,3.30
2022-09-03T05:28:11.490Z,2.05
2022-09-03T05:31:01.720Z,2.00
2022-09-03T05:33:52.682Z,2.00
2022-09-03T05:36:38.534Z,2.15
2022-09-03T05:39:23.854Z,2.55
2022-09-03T05:42:08.977Z,1.45
2022-09-03T05:44:54.767Z,2.03
2022-09-03T05:47:40.117Z,2.58
2022-09-03T05:50:25.130Z,1.98
2022-09-03T05:53:10.029Z,2.30
2022-09-03T05:56:04.159Z,3.35
2022-09-03T05:58:52.440Z,2.10
2022-09-03T06:01:39.706Z,1.88
2022-09-03T06:04:24.863Z,1.75
2022-09-03T06:07:10.231Z,1.95
2022-09-03T06:09:55.671Z,1.20
2022-09-03T06:12:40.759Z,2.33
2022-09-03T06:15:26.110Z,1.85
2022-09-03T06:18:10.997Z,1.80
2022-09-03T06:20:57.696Z,1.27
2022-09-03T06:23:46.619Z,2.28
2022-09-03T06:26:31.895Z,3.17
2022-09-03T06:29:19.134Z,1.58
2022-09-03T06:32:04.949Z,2.08
2022-09-03T06:34:50.380Z,3.35
2022-09-03T06:37:42.997Z,1.98
2022-09-03T06:40:28.772Z,1.90
2022-09-03T06:43:13.815Z,1.83
2022-09-03T06:46:02.248Z,1.73
2022-09-03T06:48:47.809Z,2.67
2022-09-03T06:51:33.361Z,5.03
2022-09-03T06:54:18.710Z,3.83
2022-09-03T06:57:04.428Z,3.10
2022-09-03T06:59:49.616Z,6.07
2022-09-03T07:02:35.183Z,4.70
2022-09-03T07:05:20.887Z,4.70
2022-09-03T07:08:06.303Z,5.73
2022-09-03T07:10:51.504Z,9.82
2022-09-03T07:13:39.317Z,4.93
2022-09-03T07:16:27.742Z,6.20
2022-09-03T07:19:13.702Z,6.93
2022-09-03T07:21:59.964Z,4.93
2022-09-03T07:24:47.607Z,5.30
2022-09-03T07:27:35.379Z,4.25
2022-09-03T07:30:20.398Z,5.93
2022-09-03T07:33:07.301Z,5.43
2022-09-03T07:35:52.937Z,4.73
2022-09-03T07:38:38.307Z,4.18
2022-09-03T07:41:28.791Z,4.97
2022-09-03T07:44:20.170Z,4.45
2022-09-03T07:47:06.586Z,8.48
2022-09-03T07:49:51.702Z,3.93
2022-09-03T07:52:36.557Z,6.63
2022-09-03T07:55:21.996Z,3.95
2022-09-03T07:58:07.928Z,7.75
2022-09-03T08:00:56.912Z,6.63
2022-09-03T08:03:45.458Z,5.23
2022-09-03T08:06:32.583Z,5.38
2022-09-03T08:09:17.409Z,6.57
2022-09-03T08:12:05.669Z,7.00
2022-09-03T08:14:51.291Z,6.25
2022-09-03T08:17:36.328Z,8.60
2022-09-03T08:20:22.559Z,5.57
2022-09-03T08:23:07.741Z,3.97
2022-09-03T08:26:00.589Z,5.63
2022-09-03T08:28:46.011Z,5.03
2022-09-03T08:33:45.277Z,6.70
2022-09-03T08:36:31.800Z,9.52
2022-09-03T08:39:18.258Z,6.25
2022-09-03T08:42:21.684Z,9.45
2022-09-03T08:45:10.136Z,5.93
2022-09-03T08:48:04.905Z,7.40
2022-09-03T08:50:56.021Z,6.40
2022-09-03T08:53:48.065Z,4.15
2022-09-03T08:56:38.584Z,4.72
2022-09-03T08:59:27.083Z,4.60
2022-09-03T09:02:33.968Z,4.33
2022-09-03T09:05:27.078Z,6.15
2022-09-03T09:08:24.446Z,6.55
2022-09-03T09:11:40.838Z,4.32
2022-09-03T09:14:39.984Z,6.53
2022-09-03T09:17:43.780Z,4.93
2022-09-03T09:20:47.671Z,4.60
2022-09-03T09:23:40.423Z,4.25
2022-09-03T09:26:25.631Z,4.63
2022-09-03T09:29:12.898Z,4.63
2022-09-03T09:31:58.939Z,6.57
2022-09-03T09:34:47.490Z,4.88
2022-09-03T09:37:54.250Z,3.78
2022-09-03T09:40:45.044Z,4.63
2022-09-03T09:43:30.611Z,3.88
2022-09-03T09:46:21.446Z,5.57
2022-09-03T09:49:31.422Z,6.60
2022-09-03T09:52:17.777Z,4.40
2022-09-03T09:55:18.216Z,5.28
2022-09-03T09:58:13.592Z,4.03
2022-09-03T10:01:10.959Z,3.73
2022-09-03T10:04:07.804Z,6.78
2022-09-03T10:07:21.562Z,4.30
2022-09-03T10:10:11.187Z,3.97
2022-09-03T10:13:01.693Z,4.00
2022-09-03T10:15:54.761Z,3.53
2022-09-03T10:19:04.195Z,3.33
2022-09-03T10:22:03.097Z,4.15
2022-09-03T10:25:03.736Z,3.40
2022-09-03T10:27:50.737Z,4.70
2022-09-03T10:30:55.777Z,5.27
2022-09-03T10:34:21.912Z,4.35
2022-09-03T10:37:22.099Z,4.38
2022-09-03T10:40:20.899Z,5.03
2022-09-03T10:43:31.534Z,2.90
2022-09-03T10:46:24.373Z,4.83
2022-09-03T10:49:15.703Z,3.75
2022-09-03T10:52:25.749Z,3.38
2022-09-03T23:20:32.795Z,5.83
2022-09-03T23:23:37.411Z,5.65
2022-09-03T23:26:41.491Z,6.28
2022-09-03T23:29:30.031Z,5.97
2022-09-03T23:32:15.319Z,4.88
2022-09-03T23:35:02.221Z,12.60
2022-09-03T23:37:52.147Z,5.97
2022-09-03T23:40:40.841Z,5.93
2022-09-03T23:44:04.681Z,5.18
2022-09-03T23:46:59.520Z,6.30
2022-09-03T23:50:02.270Z,5.47
2022-09-03T23:53:12.781Z,4.75
2022-09-03T23:56:22.505Z,6.43
2022-09-03T23:59:20.244Z,7.88
